createdAt,value
2018-03-30T00:00:02.096Z,13.23
2018-03-30T00:02:08.049Z,13.87
2018-03-30T00:04:13.951Z,14.10
2018-03-30T00:06:19.707Z,17.83
2018-03-30T00:08:26.138Z,13.60
2018-03-30T00:10:32.315Z,19.10
2018-03-30T00:12:37.670Z,20.17
2018-03-30T00:14:44.444Z,19.30
2018-03-30T00:16:49.700Z,16.63
2018-03-30T00:18:55.030Z,12.90
2018-03-30T00:21:01.463Z,15.40
2018-03-30T00:23:06.797Z,13.50
2018-03-30T00:25:12.668Z,13.97
2018-03-30T00:27:18.690Z,15.23
2018-03-30T00:29:24.540Z,14.63
2018-03-30T00:31:30.371Z,12.27
2018-03-30T00:33:40.097Z,13.87
2018-03-30T00:35:45.873Z,12.80
2018-03-30T00:37:51.339Z,14.23
2018-03-30T00:39:57.017Z,13.53
2018-03-30T00:42:02.734Z,14.80
2018-03-30T00:44:08.019Z,16.93
2018-03-30T00:46:14.869Z,13.57
2018-03-30T00:48:20.731Z,16.20
2018-03-30T00:50:26.015Z,13.80
2018-03-30T00:52:31.579Z,13.93
2018-03-30T00:54:38.546Z,13.97
2018-03-30T00:56:43.755Z,15.07
2018-03-30T00:58:49.966Z,14.13
2018-03-30T01:00:55.882Z,13.30
2018-03-30T01:03:01.232Z,13.60
2018-03-30T01:05:07.532Z,12.17
2018-03-30T01:07:13.412Z,12.20
2018-03-30T01:09:19.282Z,13.93
2018-03-30T01:11:25.646Z,12.60
2018-03-30T01:13:31.504Z,12.17
2018-03-30T01:15:37.366Z,13.40
2018-03-30T01:17:42.946Z,14.40
2018-03-30T01:19:48.460Z,16.87
2018-03-30T01:21:54.528Z,12.07
2018-03-30T01:24:00.087Z,13.97
2018-03-30T01:26:06.142Z,12.47
2018-03-30T01:28:12.061Z,12.23
2018-03-30T01:30:18.564Z,12.30
2018-03-30T01:32:23.862Z,12.10
2018-03-30T01:34:29.758Z,12.60
2018-03-30T01:36:36.215Z,12.10
2018-03-30T01:38:41.938Z,13.23
2018-03-30T01:40:47.190Z,13.10
2018-03-30T01:42:53.234Z,12.33
2018-03-30T01:44:59.090Z,10.80
2018-03-30T01:47:04.887Z,12.40
2018-03-30T01:49:11.039Z,12.63
2018-03-30T01:51:16.938Z,13.20
2018-03-30T01:53:22.644Z,14.80
2018-03-30T01:55:29.146Z,14.03
2018-03-30T01:57:34.924Z,12.97
2018-03-30T01:59:41.264Z,13.90
2018-03-30T02:01:51.456Z,13.30
2018-03-30T02:03:57.400Z,13.50
2018-03-30T02:06:03.991Z,11.80
2018-03-30T02:08:09.707Z,13.20
2018-03-30T02:10:15.771Z,11.90
2018-03-30T02:12:21.679Z,11.00
2018-03-30T02:14:28.510Z,13.23
2018-03-30T02:16:34.325Z,11.97
2018-03-30T02:18:40.289Z,11.70
2018-03-30T02:20:46.586Z,10.03
2018-03-30T02:22:52.254Z,9.77
2018-03-30T02:24:58.091Z,9.67
2018-03-30T02:27:04.319Z,11.40
2018-03-30T02:29:10.264Z,10.60
2018-03-30T02:31:15.977Z,10.40
2018-03-30T02:33:22.175Z,10.47
2018-03-30T02:35:28.025Z,9.60
2018-03-30T02:37:33.856Z,10.73
2018-03-30T02:39:40.351Z,10.17
2018-03-30T02:41:46.325Z,10.13
2018-03-30T02:43:52.178Z,10.50
2018-03-30T02:45:58.071Z,10.73
2018-03-30T02:48:04.181Z,10.60
2018-03-30T02:50:11.004Z,10.33
2018-03-30T02:52:16.764Z,11.47
2018-03-30T02:54:22.192Z,11.43
2018-03-30T02:56:27.538Z,12.60
2018-03-30T02:58:33.525Z,11.70
2018-03-30T03:00:38.787Z,13.93
2018-03-30T03:02:44.613Z,12.77
2018-03-30T03:04:50.697Z,13.47
2018-03-30T03:06:55.960Z,12.73
2018-03-30T03:09:01.712Z,14.27
2018-03-30T03:11:11.133Z,14.70
2018-03-30T03:13:16.860Z,15.50
2018-03-30T03:15:22.514Z,13.87
2018-03-30T03:17:28.726Z,14.57
2018-03-30T03:19:34.030Z,13.87
2018-03-30T03:21:40.425Z,14.83
2018-03-30T03:23:46.574Z,14.23
2018-03-30T03:25:52.180Z,15.93
2018-03-30T03:27:58.127Z,15.50
2018-03-30T03:30:04.381Z,15.33
2018-03-30T03:32:10.775Z,14.57
2018-03-30T03:34:17.459Z,15.60
2018-03-30T03:36:23.502Z,18.80
2018-03-30T03:38:28.992Z,15.40
2018-03-30T03:40:34.787Z,15.23
2018-03-30T03:42:40.987Z,15.37
2018-03-30T03:44:46.640Z,15.83
2018-03-30T03:46:52.342Z,16.37
2018-03-30T03:48:58.572Z,16.00
2018-03-30T03:51:04.204Z,15.00
2018-03-30T03:53:10.350Z,14.90
2018-03-30T03:55:16.371Z,16.43
2018-03-30T03:57:22.832Z,14.87
2018-03-30T03:59:28.262Z,15.20
2018-03-30T04:01:34.447Z,16.20
2018-03-30T04:03:40.518Z,17.47
2018-03-30T04:05:46.594Z,16.00
2018-03-30T04:07:52.804Z,16.20
2018-03-30T04:09:58.148Z,17.13
2018-03-30T04:12:03.915Z,16.67
2018-03-30T04:14:09.698Z,15.27
2018-03-30T04:16:15.502Z,16.03
2018-03-30T04:18:21.032Z,16.07
2018-03-30T04:20:27.284Z,15.87
2018-03-30T04:22:33.043Z,18.10
2018-03-30T04:24:38.851Z,18.77
2018-03-30T04:26:45.007Z,20.33
2018-03-30T04:28:50.985Z,17.83
2018-03-30T04:30:56.378Z,18.93
2018-03-30T04:33:02.252Z,17.13
2018-03-30T04:35:08.197Z,16.17
2018-03-30T04:37:13.463Z,18.13
2018-03-30T04:39:19.209Z,17.63
2018-03-30T04:41:24.987Z,22.53
2018-03-30T04:43:30.728Z,20.50
2018-03-30T04:45:36.508Z,20.23
2018-03-30T04:47:42.026Z,17.43
2018-03-30T04:49:48.129Z,17.80
2018-03-30T04:51:53.567Z,17.10
2018-03-30T04:53:59.544Z,17.90
2018-03-30T04:56:04.952Z,16.33
2018-03-30T04:58:11.161Z,17.33
2018-03-30T05:00:16.829Z,19.60
2018-03-30T05:02:22.713Z,17.53
2018-03-30T05:04:29.279Z,18.43
2018-03-30T05:06:36.049Z,19.00
2018-03-30T05:08:41.332Z,16.53
2018-03-30T05:10:46.661Z,15.30
2018-03-30T05:12:52.760Z,20.00
2018-03-30T05:14:58.397Z,21.13
2018-03-30T05:17:04.405Z,20.00
2018-03-30T05:19:10.112Z,22.13
2018-03-30T05:21:15.602Z,16.07
2018-03-30T05:23:20.848Z,17.60
2018-03-30T05:25:27.244Z,18.93
2018-03-30T05:27:32.458Z,15.97
2018-03-30T05:29:38.145Z,15.80
2018-03-30T05:31:43.678Z,16.47
2018-03-30T05:33:50.158Z,16.63
2018-03-30T05:35:55.555Z,18.17
2018-03-30T05:38:01.830Z,17.60
2018-03-30T05:40:07.779Z,15.70
2018-03-30T05:42:12.991Z,18.03
2018-03-30T05:44:19.043Z,17.33
2018-03-30T05:46:24.911Z,19.00
2018-03-30T05:48:30.732Z,18.70
2018-03-30T05:50:36.620Z,19.00
2018-03-30T05:52:42.139Z,20.97
2018-03-30T05:54:48.045Z,22.67
2018-03-30T05:56:54.302Z,27.40
2018-03-30T05:58:59.793Z,25.43
2018-03-30T06:01:05.064Z,26.73
2018-03-30T06:03:10.352Z,27.80
2018-03-30T06:05:16.539Z,29.20
2018-03-30T06:07:22.277Z,30.23
2018-03-30T06:09:28.256Z,32.07
2018-03-30T06:11:34.362Z,45.23
2018-03-30T06:13:39.658Z,175.17
2018-03-30T06:15:44.964Z,931.27
2018-03-30T06:17:50.506Z,839.23
2018-03-30T06:19:56.056Z,867.60
2018-03-30T06:22:02.280Z,939.23
2018-03-30T06:24:08.047Z,1092.13
2018-03-30T06:26:13.441Z,1220.77
2018-03-30T06:28:18.634Z,1051.40
2018-03-30T06:30:24.756Z,1092.60
2018-03-30T06:32:30.096Z,1320.90
2018-03-30T06:34:35.467Z,1203.87
2018-03-30T06:36:41.120Z,1595.80
2018-03-30T06:38:47.108Z,1468.60
2018-03-30T06:40:53.348Z,1380.97
2018-03-30T06:42:59.413Z,1344.63
2018-03-30T06:45:04.716Z,1175.63
2018-03-30T06:47:10.363Z,962.90
2018-03-30T06:49:15.898Z,749.70
2018-03-30T06:51:21.200Z,549.47
2018-03-30T06:53:27.136Z,789.07
2018-03-30T06:55:33.563Z,915.33
2018-03-30T06:57:38.877Z,1099.40
2018-03-30T06:59:44.237Z,1224.57
2018-03-30T07:01:50.005Z,1567.23
2018-03-30T07:03:55.937Z,1939.67
2018-03-30T07:06:01.279Z,1335.97
2018-03-30T07:08:07.480Z,993.20
2018-03-30T07:10:13.539Z,670.33
2018-03-30T07:12:18.772Z,1744.93
2018-03-30T07:14:24.348Z,1293.33
2018-03-30T07:16:30.173Z,1298.50
2018-03-30T07:18:35.458Z,1999.90
2018-03-30T07:20:41.199Z,1695.70
2018-03-30T07:22:47.714Z,990.07
2018-03-30T07:24:52.982Z,698.93
2018-03-30T07:26:58.520Z,834.23
2018-03-30T07:29:04.281Z,426.37
2018-03-30T07:31:09.943Z,203.60
2018-03-30T07:33:15.522Z,1532.97
2018-03-30T07:35:21.848Z,1255.67
2018-03-30T07:37:27.200Z,698.10
2018-03-30T07:39:32.801Z,365.50
2018-03-30T07:41:38.383Z,179.73
2018-03-30T07:43:43.664Z,87.50
2018-03-30T07:45:49.384Z,48.30
2018-03-30T07:47:54.993Z,35.10
2018-03-30T07:50:00.340Z,26.30
2018-03-30T07:52:06.037Z,33.90
2018-03-30T07:54:11.299Z,22.90
2018-03-30T07:56:17.806Z,967.17
2018-03-30T07:58:23.505Z,968.80
2018-03-30T08:00:29.104Z,1769.97
2018-03-30T08:02:34.542Z,1120.83
2018-03-30T08:04:40.654Z,915.07
2018-03-30T08:06:46.033Z,605.83
2018-03-30T08:08:52.302Z,602.20
2018-03-30T08:10:57.990Z,334.47
2018-03-30T08:13:03.400Z,625.60
2018-03-30T08:15:10.231Z,825.33
2018-03-30T08:17:16.012Z,785.77
2018-03-30T08:19:21.761Z,564.13
2018-03-30T08:21:28.324Z,327.97
2018-03-30T08:23:33.872Z,323.67
2018-03-30T08:25:39.208Z,1270.27
2018-03-30T08:27:44.973Z,826.77
2018-03-30T08:29:51.762Z,443.73
2018-03-30T08:31:57.416Z,177.33
2018-03-30T08:34:03.016Z,632.30
2018-03-30T08:36:08.650Z,200.13
2018-03-30T08:38:14.339Z,401.77
2018-03-30T08:40:22.365Z,106.63
2018-03-30T08:42:28.188Z,1234.83
2018-03-30T08:44:34.467Z,1603.87
2018-03-30T08:46:39.847Z,938.00
2018-03-30T08:48:45.950Z,586.97
2018-03-30T08:50:51.902Z,314.70
2018-03-30T08:52:57.228Z,132.83
2018-03-30T08:55:03.199Z,59.20
2018-03-30T08:57:09.339Z,38.33
2018-03-30T08:59:14.735Z,1889.27
2018-03-30T09:01:21.244Z,1280.13
2018-03-30T09:03:26.588Z,652.70
2018-03-30T09:05:32.118Z,436.83
2018-03-30T09:07:37.678Z,163.63
2018-03-30T09:09:43.748Z,802.03
2018-03-30T09:11:49.042Z,1052.30
2018-03-30T09:13:54.674Z,640.30
2018-03-30T09:16:00.064Z,465.00
2018-03-30T09:18:05.386Z,172.80
2018-03-30T09:20:11.690Z,74.73
2018-03-30T09:22:21.076Z,39.83
2018-03-30T09:24:26.347Z,33.20
2018-03-30T09:26:32.011Z,26.90
2018-03-30T09:28:37.383Z,21.50
2018-03-30T09:30:42.667Z,22.67
2018-03-30T09:32:48.277Z,21.87
2018-03-30T09:34:53.610Z,19.90
2018-03-30T09:36:58.933Z,18.70
2018-03-30T09:39:04.905Z,20.17
2018-03-30T09:41:11.597Z,18.57
2018-03-30T09:43:16.903Z,19.30
2018-03-30T09:45:22.432Z,22.80
2018-03-30T09:47:27.740Z,21.60
2018-03-30T09:49:33.052Z,19.73
2018-03-30T09:51:38.736Z,19.07
2018-03-30T09:53:44.041Z,19.53
2018-03-30T09:55:49.292Z,19.70
2018-03-30T09:57:55.192Z,20.13
2018-03-30T10:00:00.523Z,24.67
2018-03-30T10:02:06.412Z,21.60
2018-03-30T10:04:12.312Z,22.63
2018-03-30T10:06:17.604Z,22.00
2018-03-30T10:08:23.006Z,24.60
2018-03-30T10:10:28.606Z,23.13
2018-03-30T10:12:34.030Z,25.43
2018-03-30T10:14:39.380Z,24.10
2018-03-30T10:16:45.014Z,24.20
2018-03-30T10:18:50.532Z,21.80
2018-03-30T10:20:55.972Z,23.13
2018-03-30T10:23:01.629Z,25.57
2018-03-30T10:25:06.986Z,21.20
2018-03-30T10:27:12.381Z,23.73
2018-03-30T10:29:17.943Z,22.20
2018-03-30T10:31:23.172Z,19.47
2018-03-30T10:33:28.509Z,19.00
2018-03-30T10:35:34.289Z,18.00
2018-03-30T10:37:39.743Z,19.43
2018-03-30T10:39:44.999Z,20.30
2018-03-30T10:41:50.708Z,19.90
2018-03-30T10:43:56.063Z,15.40
2018-03-30T10:46:01.439Z,15.83
2018-03-30T10:48:07.208Z,16.13
2018-03-30T10:50:12.728Z,15.67
2018-03-30T10:52:18.096Z,14.57
2018-03-30T10:54:23.715Z,11.87
2018-03-30T10:56:28.999Z,13.43
2018-03-30T10:58:34.292Z,14.50
2018-03-30T11:00:39.910Z,10.47
2018-03-30T11:02:45.244Z,12.47
2018-03-30T11:04:50.608Z,10.00
2018-03-30T11:06:56.287Z,10.90
2018-03-30T11:09:01.720Z,9.50
2018-03-30T11:11:07.140Z,9.20
2018-03-30T11:13:12.705Z,9.37
2018-03-30T11:15:18.024Z,8.10
2018-03-30T11:17:23.352Z,9.97
2018-03-30T11:19:29.028Z,10.20
2018-03-30T11:21:34.392Z,10.70
2018-03-30T11:23:40.396Z,10.00
2018-03-30T11:25:45.973Z,11.03
2018-03-30T11:27:51.363Z,11.70
2018-03-30T11:29:56.718Z,8.80
2018-03-30T11:32:02.483Z,10.53
2018-03-30T11:34:08.243Z,9.97
2018-03-30T11:36:13.522Z,8.80
2018-03-30T11:38:19.132Z,9.60
2018-03-30T11:40:24.416Z,10.40
2018-03-30T11:42:29.796Z,9.97
2018-03-30T11:44:35.413Z,9.77
2018-03-30T11:46:40.825Z,8.30
2018-03-30T11:48:46.114Z,8.83
2018-03-30T11:50:51.908Z,8.67
2018-03-30T11:52:57.149Z,9.20
2018-03-30T11:55:02.469Z,6.87
2018-03-30T11:57:08.022Z,7.53
2018-03-30T11:59:13.286Z,8.00
2018-03-30T12:01:18.616Z,7.10
2018-03-30T12:03:24.172Z,7.53
2018-03-30T12:05:29.496Z,7.70
2018-03-30T12:07:34.829Z,6.13
2018-03-30T12:09:40.428Z,7.53
2018-03-30T12:11:45.660Z,7.00
2018-03-30T12:13:50.881Z,7.40
2018-03-30T12:15:56.464Z,6.23
2018-03-30T12:18:01.778Z,6.70
2018-03-30T12:20:07.177Z,7.00
2018-03-30T12:22:12.741Z,6.73
2018-03-30T12:24:18.093Z,6.80
2018-03-30T12:26:23.412Z,6.43
2018-03-30T12:28:28.928Z,6.37
2018-03-30T12:30:34.208Z,6.23
2018-03-30T12:32:39.468Z,5.90
2018-03-30T12:34:45.040Z,8.00
2018-03-30T12:36:50.274Z,7.50
2018-03-30T12:38:55.791Z,8.67
2018-03-30T12:41:01.399Z,7.73
2018-03-30T12:43:06.643Z,7.03
2018-03-30T12:45:11.955Z,6.50
2018-03-30T12:47:17.515Z,7.40
2018-03-30T12:49:22.793Z,7.87
2018-03-30T12:51:28.137Z,8.50
2018-03-30T12:53:33.609Z,8.00
2018-03-30T12:55:38.799Z,8.43
2018-03-30T12:57:44.086Z,8.97
2018-03-30T12:59:49.558Z,8.80
2018-03-30T13:01:55.796Z,8.93
2018-03-30T13:04:01.856Z,10.33
2018-03-30T13:06:07.481Z,9.50
2018-03-30T13:08:12.857Z,12.70
2018-03-30T13:10:18.148Z,10.30
2018-03-30T13:12:24.396Z,8.10
2018-03-30T13:14:30.188Z,8.93
2018-03-30T13:16:35.409Z,7.80
2018-03-30T13:18:40.950Z,10.83
2018-03-30T13:20:46.172Z,9.73
2018-03-30T13:22:51.421Z,8.70
2018-03-30T13:24:57.000Z,9.13
2018-03-30T13:27:02.428Z,8.00
2018-03-30T13:29:08.010Z,8.83
2018-03-30T13:31:14.127Z,7.80
2018-03-30T13:33:19.383Z,7.20
2018-03-30T13:35:24.681Z,6.57
2018-03-30T13:37:30.199Z,5.70
2018-03-30T13:39:35.450Z,6.17
2018-03-30T13:41:40.791Z,6.60
2018-03-30T13:43:46.311Z,5.10
2018-03-30T13:45:51.607Z,6.30
2018-03-30T13:47:56.855Z,6.27
2018-03-30T13:50:02.376Z,6.27
2018-03-30T13:52:07.702Z,6.53
2018-03-30T13:54:12.989Z,5.53
2018-03-30T13:56:18.515Z,5.73
2018-03-30T13:58:23.748Z,9.00
2018-03-30T14:00:29.051Z,6.33
2018-03-30T14:02:34.736Z,5.50
2018-03-30T14:04:40.489Z,6.00
2018-03-30T14:06:45.832Z,5.73
2018-03-30T14:08:51.720Z,5.43
2018-03-30T14:10:57.036Z,5.67
2018-03-30T14:13:02.296Z,5.50
2018-03-30T14:15:07.876Z,5.90
2018-03-30T14:17:13.160Z,4.93
2018-03-30T14:19:18.488Z,5.30
2018-03-30T14:21:24.227Z,5.43
2018-03-30T14:23:29.596Z,5.40
2018-03-30T14:25:35.508Z,5.73
2018-03-30T14:27:41.460Z,5.20
2018-03-30T14:29:47.106Z,4.80
2018-03-30T14:31:52.511Z,4.33
2018-03-30T14:33:58.811Z,4.60
2018-03-30T14:36:04.524Z,4.57
2018-03-30T14:38:09.823Z,4.33
2018-03-30T14:40:15.535Z,4.17
2018-03-30T14:42:20.885Z,5.73
2018-03-30T14:44:26.943Z,5.73
2018-03-30T14:46:32.689Z,5.10
2018-03-30T14:48:37.917Z,5.23
2018-03-30T14:50:43.240Z,6.23
2018-03-30T14:52:49.270Z,5.63
2018-03-30T14:54:54.958Z,6.57
2018-03-30T14:57:01.648Z,5.67
2018-03-30T14:59:07.211Z,5.60
2018-03-30T15:01:12.716Z,5.73
2018-03-30T15:03:18.119Z,4.90
2018-03-30T15:05:24.230Z,5.23
2018-03-30T15:07:30.257Z,5.93
2018-03-30T15:09:36.377Z,5.50
2018-03-30T15:11:42.535Z,4.70
2018-03-30T15:13:47.940Z,5.37
2018-03-30T15:15:53.871Z,4.33
2018-03-30T15:17:59.577Z,4.30
2018-03-30T15:20:05.002Z,4.77
2018-03-30T15:22:11.188Z,4.50
2018-03-30T15:24:17.546Z,4.63
2018-03-30T15:26:27.443Z,4.97
2018-03-30T15:28:32.787Z,4.77
2018-03-30T15:30:38.905Z,5.53
2018-03-30T15:32:44.850Z,5.50
2018-03-30T15:34:50.428Z,5.60
2018-03-30T15:36:59.117Z,4.43
2018-03-30T15:39:06.107Z,5.00
2018-03-30T15:41:12.180Z,5.50
2018-03-30T15:43:22.345Z,4.50
2018-03-30T15:45:28.984Z,5.07
2018-03-30T15:47:35.210Z,4.97
2018-03-30T15:49:44.702Z,4.30
2018-03-30T15:51:52.215Z,5.67
2018-03-30T15:53:56.172Z,4.90
2018-03-30T15:56:02.515Z,5.30
2018-03-30T15:58:08.208Z,5.17
2018-03-30T16:00:15.133Z,5.23
2018-03-30T16:02:20.717Z,4.73
2018-03-30T16:04:26.839Z,4.33
2018-03-30T16:06:32.982Z,5.00
2018-03-30T16:12:52.052Z,4.80
2018-03-30T16:14:58.583Z,4.30
2018-03-30T16:17:03.845Z,3.93
2018-03-30T16:19:07.278Z,4.53
2018-03-30T16:21:10.938Z,4.57
2018-03-30T16:23:14.982Z,4.53
2018-03-30T16:25:18.712Z,4.30
2018-03-30T16:27:22.261Z,3.83
2018-03-30T16:29:25.505Z,4.83
2018-03-30T16:31:29.166Z,5.07
2018-03-30T16:33:32.839Z,4.67
2018-03-30T16:35:36.867Z,4.43
2018-03-30T16:37:40.572Z,4.97
2018-03-30T16:39:44.123Z,5.67
2018-03-30T16:41:47.359Z,5.50
2018-03-30T16:43:50.716Z,4.27
2018-03-30T16:45:54.391Z,5.03
2018-03-30T16:47:57.780Z,5.50
2018-03-30T16:50:01.014Z,4.63
2018-03-30T16:52:04.585Z,4.60
2018-03-30T16:54:08.283Z,5.07
2018-03-30T16:56:11.601Z,5.20
2018-03-30T16:58:15.125Z,6.50
2018-03-30T17:00:18.512Z,4.60
2018-03-30T17:02:21.877Z,4.80
2018-03-30T17:04:26.025Z,4.77
2018-03-30T17:06:29.449Z,4.27
2018-03-30T17:08:32.716Z,4.13
2018-03-30T17:10:36.466Z,5.33
2018-03-30T17:12:39.720Z,5.07
2018-03-30T17:14:43.001Z,5.30
2018-03-30T17:16:46.570Z,5.93
2018-03-30T17:18:50.048Z,5.60
2018-03-30T17:20:53.862Z,7.40
2018-03-30T17:22:57.544Z,7.63
2018-03-30T17:25:01.246Z,8.20
2018-03-30T17:27:04.904Z,7.73
2018-03-30T17:29:08.490Z,9.30
2018-03-30T17:31:12.089Z,12.10
2018-03-30T17:33:15.584Z,8.13
2018-03-30T17:35:19.271Z,9.93
2018-03-30T17:37:22.695Z,10.20
2018-03-30T17:39:26.080Z,9.53
2018-03-30T17:41:29.870Z,8.77
2018-03-30T17:43:33.168Z,9.37
2018-03-30T17:45:36.480Z,7.40
2018-03-30T17:47:40.618Z,9.50
2018-03-30T17:49:43.998Z,8.83
2018-03-30T17:51:47.248Z,9.73
2018-03-30T17:53:51.074Z,10.13
2018-03-30T17:55:54.318Z,9.27
2018-03-30T17:57:57.726Z,11.77
2018-03-30T18:00:01.454Z,10.23
2018-03-30T18:02:04.823Z,9.57
2018-03-30T18:04:08.052Z,8.87
2018-03-30T18:06:11.544Z,8.87
2018-03-30T18:08:15.022Z,9.80
2018-03-30T18:10:18.396Z,10.10
2018-03-30T18:12:21.944Z,8.70
2018-03-30T18:14:25.216Z,9.20
2018-03-30T18:16:28.592Z,10.50
2018-03-30T18:18:32.120Z,9.33
2018-03-30T18:20:35.369Z,8.53
2018-03-30T18:22:38.687Z,9.13
2018-03-30T18:24:43.073Z,9.30
2018-03-30T18:26:46.292Z,8.90
2018-03-30T18:28:49.849Z,9.17
2018-03-30T18:30:53.458Z,9.50
2018-03-30T18:32:57.211Z,8.93
2018-03-30T18:35:00.695Z,9.60
2018-03-30T18:37:04.336Z,9.13
2018-03-30T18:39:07.583Z,9.80
2018-03-30T18:41:10.852Z,10.10
2018-03-30T18:43:14.372Z,9.10
2018-03-30T18:45:17.758Z,11.90
2018-03-30T18:47:21.032Z,9.67
2018-03-30T18:49:24.684Z,9.13
2018-03-30T18:51:28.107Z,10.07
2018-03-30T18:53:31.415Z,10.03
2018-03-30T18:55:35.362Z,11.00
2018-03-30T18:57:38.672Z,11.00
2018-03-30T18:59:42.365Z,10.23
2018-03-30T19:01:45.912Z,11.80
2018-03-30T19:03:49.237Z,11.20
2018-03-30T19:05:52.690Z,11.70
2018-03-30T19:07:56.356Z,11.70
2018-03-30T19:09:59.702Z,10.60
2018-03-30T19:12:03.064Z,16.80
2018-03-30T19:14:06.670Z,11.07
2018-03-30T19:16:10.492Z,11.40
2018-03-30T19:18:14.036Z,10.33
2018-03-30T19:20:17.590Z,10.20
2018-03-30T19:22:20.913Z,11.23
2018-03-30T19:24:24.158Z,12.43
2018-03-30T19:26:27.740Z,12.00
2018-03-30T19:28:31.014Z,10.90
2018-03-30T19:30:34.907Z,11.70
2018-03-30T19:32:38.561Z,11.70
2018-03-30T19:34:42.004Z,12.43
2018-03-30T19:36:45.380Z,13.33
2018-03-30T19:38:49.191Z,12.40
2018-03-30T19:40:52.412Z,14.13
2018-03-30T19:42:55.628Z,13.40
2018-03-30T19:44:59.264Z,15.00
2018-03-30T19:47:02.589Z,13.07
2018-03-30T19:49:05.852Z,13.47
2018-03-30T19:51:09.616Z,14.70
2018-03-30T19:53:13.218Z,13.83
2018-03-30T19:55:16.689Z,16.50
2018-03-30T19:57:20.204Z,14.50
2018-03-30T19:59:23.669Z,14.80
2018-03-30T20:01:27.067Z,14.43
2018-03-30T20:03:30.634Z,14.67
2018-03-30T20:05:34.628Z,14.43
2018-03-30T20:07:37.956Z,13.73
2018-03-30T20:09:41.561Z,17.10
2018-03-30T20:11:44.970Z,14.33
2018-03-30T20:13:48.289Z,14.50
2018-03-30T20:15:51.812Z,14.10
2018-03-30T20:17:55.227Z,15.13
2018-03-30T20:19:58.500Z,14.37
2018-03-30T20:22:02.139Z,15.40
2018-03-30T20:24:05.524Z,15.63
2018-03-30T20:26:09.320Z,15.30
2018-03-30T20:28:12.924Z,15.83
2018-03-30T20:30:16.316Z,18.37
2018-03-30T20:32:19.559Z,14.87
2018-03-30T20:34:23.185Z,14.77
2018-03-30T20:36:26.504Z,14.13
2018-03-30T20:38:29.783Z,15.63
2018-03-30T20:40:33.352Z,14.60
2018-03-30T20:42:36.677Z,16.83
2018-03-30T20:44:39.952Z,17.63
2018-03-30T20:46:43.812Z,15.60
2018-03-30T20:48:47.649Z,15.90
2018-03-30T20:50:50.900Z,16.27
2018-03-30T20:52:54.631Z,16.83
2018-03-30T20:54:57.860Z,17.40
2018-03-30T20:57:01.160Z,16.43
2018-03-30T20:59:04.807Z,15.23
2018-03-30T21:01:09.071Z,17.30
2018-03-30T21:03:12.292Z,14.80
2018-03-30T21:05:15.853Z,16.67
2018-03-30T21:07:19.874Z,15.60
2018-03-30T21:09:23.253Z,17.63
2018-03-30T21:11:26.824Z,16.23
2018-03-30T21:13:30.144Z,15.67
2018-03-30T21:15:33.396Z,15.97
2018-03-30T21:17:36.927Z,16.67
2018-03-30T21:19:41.004Z,17.13
2018-03-30T21:21:44.248Z,16.60
2018-03-30T21:23:47.786Z,17.70
2018-03-30T21:25:51.091Z,15.70
2018-03-30T21:27:54.501Z,16.50
2018-03-30T21:29:58.053Z,16.60
2018-03-30T21:32:01.300Z,16.20
2018-03-30T21:34:04.594Z,18.00
2018-03-30T21:36:08.140Z,15.20
2018-03-30T21:38:11.464Z,16.17
2018-03-30T21:40:14.827Z,17.70
2018-03-30T21:42:18.336Z,17.23
2018-03-30T21:44:21.611Z,18.23
2018-03-30T21:46:24.857Z,16.43
2018-03-30T21:48:28.880Z,15.63
2018-03-30T21:50:32.160Z,15.00
2018-03-30T21:52:35.395Z,16.93
2018-03-30T21:54:38.925Z,16.00
2018-03-30T21:56:42.216Z,15.93
2018-03-30T21:58:45.535Z,15.63
2018-03-30T22:00:49.206Z,19.87
2018-03-30T22:02:52.584Z,15.30
2018-03-30T22:04:56.200Z,16.47
2018-03-30T22:06:59.731Z,16.33
2018-03-30T22:09:03.874Z,16.17
2018-03-30T22:11:07.288Z,16.13
2018-03-30T22:13:11.316Z,17.00
2018-03-30T22:15:14.596Z,17.63
2018-03-30T22:17:17.962Z,16.27
2018-03-30T22:19:22.539Z,16.37
2018-03-30T22:21:25.788Z,17.20
2018-03-30T22:23:28.981Z,14.87
2018-03-30T22:25:32.601Z,16.33
2018-03-30T22:27:36.059Z,16.03
2018-03-30T22:29:39.268Z,16.33
2018-03-30T22:31:42.775Z,16.27
2018-03-30T22:33:46.055Z,17.17
2018-03-30T22:35:49.259Z,15.07
2018-03-30T22:37:53.491Z,15.93
2018-03-30T22:42:05.091Z,19.60
2018-03-30T22:44:09.238Z,15.47
2018-03-30T22:46:13.147Z,16.70
2018-03-30T22:48:16.433Z,16.03
2018-03-30T22:50:20.543Z,16.83
2018-03-30T22:52:24.434Z,16.10
2018-03-30T22:54:27.652Z,16.00
2018-03-30T22:56:31.263Z,16.13
2018-03-30T22:58:34.925Z,15.13
2018-03-30T23:00:38.255Z,14.77
2018-03-30T23:02:41.794Z,15.10
2018-03-30T23:04:45.192Z,14.40
2018-03-30T23:06:48.436Z,18.00
2018-03-30T23:08:51.999Z,15.27
2018-03-30T23:10:55.920Z,17.30
2018-03-30T23:12:59.208Z,15.83
2018-03-30T23:15:02.787Z,17.63
2018-03-30T23:17:06.060Z,16.20
2018-03-30T23:19:09.356Z,16.27
2018-03-30T23:21:17.819Z,17.27
2018-03-30T23:23:21.032Z,18.47
2018-03-30T23:25:24.264Z,18.40
2018-03-30T23:27:27.856Z,17.40
2018-03-30T23:29:31.625Z,18.87
2018-03-30T23:31:34.967Z,18.93
2018-03-30T23:33:38.495Z,17.97
2018-03-30T23:35:42.272Z,18.43
2018-03-30T23:37:46.094Z,18.33
2018-03-30T23:39:50.172Z,17.50
2018-03-30T23:41:53.924Z,18.80
2018-03-30T23:43:57.512Z,16.67
2018-03-30T23:46:01.904Z,18.70
2018-03-30T23:48:05.793Z,20.10
2018-03-30T23:50:09.762Z,17.23
2018-03-30T23:52:13.359Z,17.37
2018-03-30T23:54:16.638Z,18.07
2018-03-30T23:56:19.973Z,16.27
2018-03-30T23:58:23.680Z,17.03
